createdAt,value
2018-11-12T00:03:36.238Z,7.30
2018-11-12T00:11:57.610Z,6.80
2018-11-12T00:20:18.994Z,6.90
2018-11-12T00:28:40.370Z,6.00
2018-11-12T00:37:01.743Z,7.63
2018-11-12T00:45:23.775Z,7.43
2018-11-12T00:53:45.158Z,7.23
2018-11-12T01:02:06.526Z,6.37
2018-11-12T01:10:27.970Z,6.37
2018-11-12T01:18:49.862Z,6.10
2018-11-12T01:27:11.314Z,6.27
2018-11-12T01:35:32.670Z,6.80
2018-11-12T01:43:54.033Z,6.00
2018-11-12T01:52:15.405Z,5.57
2018-11-12T02:00:36.769Z,5.60
2018-11-12T02:08:58.234Z,5.53
2018-11-12T02:17:19.578Z,5.63
2018-11-12T02:25:40.938Z,5.60
2018-11-12T02:34:02.297Z,6.00
2018-11-12T02:42:23.670Z,4.90
2018-11-12T02:50:45.026Z,4.60
2018-11-12T02:59:06.420Z,4.27
2018-11-12T03:07:27.815Z,4.27
2018-11-12T03:15:49.206Z,4.23
2018-11-12T03:24:10.556Z,4.43
2018-11-12T03:32:31.918Z,4.10
2018-11-12T03:40:53.286Z,4.00
2018-11-12T03:49:14.665Z,4.00
2018-11-12T03:57:36.297Z,4.37
2018-11-12T04:05:57.657Z,4.13
2018-11-12T04:14:19.041Z,4.13
2018-11-12T04:22:41.309Z,4.40
2018-11-12T04:31:02.688Z,4.20
2018-11-12T04:39:24.050Z,4.57
2018-11-12T04:47:46.400Z,4.20
2018-11-12T04:56:07.801Z,4.57
2018-11-12T05:04:29.181Z,4.90
2018-11-12T05:12:51.266Z,4.67
2018-11-12T05:21:12.632Z,4.43
2018-11-12T05:29:33.993Z,4.40
2018-11-12T05:37:55.452Z,4.90
2018-11-12T05:46:16.762Z,5.30
2018-11-12T05:54:38.137Z,5.90
2018-11-12T06:02:59.817Z,6.50
2018-11-12T06:11:21.174Z,6.07
2018-11-12T06:19:42.597Z,5.70
2018-11-12T06:28:03.978Z,6.03
2018-11-12T06:36:25.346Z,6.90
2018-11-12T06:44:46.702Z,6.20
2018-11-12T06:53:08.162Z,7.67
2018-11-12T07:01:29.431Z,8.00
2018-11-12T07:09:50.803Z,8.30
2018-11-12T07:18:12.202Z,7.80
2018-11-12T07:26:33.584Z,8.23
2018-11-12T07:34:54.950Z,8.90
2018-11-12T07:43:16.310Z,8.50
2018-11-12T07:51:37.666Z,10.80
2018-11-12T07:59:59.019Z,9.03
2018-11-12T08:08:20.395Z,9.10
2018-11-12T08:16:41.777Z,9.80
2018-11-12T08:25:03.155Z,9.90
2018-11-12T08:33:24.599Z,10.20
2018-11-12T08:41:45.962Z,10.27
2018-11-12T08:50:07.402Z,11.93
2018-11-12T08:58:29.130Z,9.90
2018-11-12T09:06:50.547Z,10.20
2018-11-12T09:15:13.338Z,13.00
2018-11-12T09:23:34.703Z,12.70
2018-11-12T09:31:56.142Z,11.50
2018-11-12T09:40:17.697Z,14.10
2018-11-12T09:48:39.562Z,14.07
2018-11-12T09:57:01.128Z,15.20
2018-11-12T10:05:23.895Z,14.13
2018-11-12T10:13:47.196Z,14.53
2018-11-12T10:22:05.399Z,6.27
2018-11-12T10:30:26.762Z,9.07
2018-11-12T10:38:48.152Z,10.13
2018-11-12T10:47:09.543Z,4.57
2018-11-12T10:55:31.091Z,2.70
2018-11-12T11:03:57.874Z,3.00
2018-11-12T11:12:19.366Z,2.57
2018-11-12T11:20:40.814Z,2.63
2018-11-12T11:29:02.208Z,2.30
2018-11-12T11:37:24.338Z,2.40
2018-11-12T11:45:45.703Z,2.40
2018-11-12T11:54:07.062Z,3.00
2018-11-12T12:02:28.636Z,2.60
2018-11-12T12:10:50.011Z,2.30
2018-11-12T12:19:11.444Z,2.40
2018-11-12T12:27:32.879Z,2.40
2018-11-12T12:35:54.354Z,3.00
2018-11-12T12:44:15.793Z,2.70
2018-11-12T12:52:37.273Z,2.33
2018-11-12T13:00:58.710Z,2.90
2018-11-12T13:09:20.108Z,2.57
2018-11-12T13:17:42.268Z,2.80
2018-11-12T13:26:03.646Z,2.63
2018-11-12T13:34:25.050Z,3.00
2018-11-12T13:42:48.075Z,3.40
2018-11-12T13:51:09.481Z,3.73
2018-11-12T13:59:30.948Z,3.70
2018-11-12T14:07:52.334Z,4.10
2018-11-12T14:16:13.769Z,4.13
2018-11-12T14:24:35.218Z,4.70
2018-11-12T14:32:56.748Z,4.73
2018-11-12T14:41:18.165Z,5.27
2018-11-12T14:49:39.601Z,6.33
2018-11-12T14:58:00.978Z,6.90
2018-11-12T15:06:22.357Z,5.97
2018-11-12T15:14:43.813Z,5.50
2018-11-12T15:23:05.217Z,5.93
2018-11-12T15:31:26.946Z,4.43
2018-11-12T15:39:48.346Z,4.80
2018-11-12T15:48:09.793Z,5.73
2018-11-12T15:56:31.255Z,6.10
2018-11-12T16:04:52.614Z,6.17
2018-11-12T16:13:14.081Z,6.27
2018-11-12T16:21:35.517Z,6.83
2018-11-12T16:29:56.982Z,8.00
2018-11-12T16:38:18.357Z,7.57
2018-11-12T16:46:39.730Z,7.43
2018-11-12T16:55:01.142Z,6.70
2018-11-12T17:03:22.602Z,7.53
2018-11-12T17:11:44.111Z,8.40
2018-11-12T17:20:05.530Z,7.80
2018-11-12T17:28:26.986Z,7.33
2018-11-12T17:36:48.424Z,7.87
2018-11-12T17:45:10.507Z,7.47
2018-11-12T17:53:31.962Z,8.40
2018-11-12T18:01:53.343Z,8.70
2018-11-12T18:10:15.206Z,7.87
2018-11-12T18:18:36.571Z,7.93
2018-11-12T18:26:57.943Z,9.27
2018-11-12T18:35:19.321Z,9.57
2018-11-12T18:43:40.783Z,10.57
2018-11-12T18:52:02.170Z,11.40
2018-11-12T19:00:24.438Z,11.03
2018-11-12T19:08:45.914Z,11.50
2018-11-12T19:17:07.359Z,11.03
2018-11-12T19:25:28.734Z,9.33
2018-11-12T19:33:50.181Z,10.30
2018-11-12T19:42:11.966Z,11.33
2018-11-12T19:50:33.395Z,11.60
2018-11-12T19:58:55.009Z,11.80
2018-11-12T20:07:16.411Z,11.50
2018-11-12T20:15:37.920Z,11.47
2018-11-12T20:23:59.268Z,10.33
2018-11-12T20:32:20.758Z,11.93
2018-11-12T20:40:42.106Z,11.77
2018-11-12T20:49:03.538Z,11.77
2018-11-12T20:57:25.187Z,12.73
2018-11-12T21:05:46.583Z,12.97
2018-11-12T21:14:08.129Z,10.60
2018-11-12T21:22:29.509Z,10.57
2018-11-12T21:30:50.894Z,11.73
2018-11-12T21:39:12.848Z,12.20
2018-11-12T21:47:34.553Z,11.17
2018-11-12T21:55:55.966Z,13.17
2018-11-12T22:04:18.472Z,12.23
2018-11-12T22:12:40.630Z,13.60
2018-11-12T22:21:01.986Z,12.83
2018-11-12T22:29:23.445Z,13.23
2018-11-12T22:37:45.430Z,11.27
2018-11-12T22:46:06.850Z,10.83
2018-11-12T22:54:28.431Z,9.27
2018-11-12T23:02:50.901Z,9.30
2018-11-12T23:11:12.382Z,9.57
2018-11-12T23:19:33.763Z,10.57
2018-11-12T23:27:55.141Z,9.97
2018-11-12T23:36:16.530Z,12.43
2018-11-12T23:44:37.900Z,12.20
2018-11-12T23:52:59.337Z,11.80
